createdAt,value
2022-12-11T00:00:55.459Z,96890.75
2022-12-11T00:03:23.113Z,96892.69
2022-12-11T00:05:50.623Z,96884.56
2022-12-11T00:08:18.186Z,96881.44
2022-12-11T00:10:49.663Z,96882.88
2022-12-11T00:13:17.217Z,96876.03
2022-12-11T00:15:44.654Z,96867.31
2022-12-11T00:18:14.158Z,96871.44
2022-12-11T00:20:42.016Z,96878.91
2022-12-11T00:23:10.926Z,96860.47
2022-12-11T00:25:45.666Z,96878.16
2022-12-11T00:28:19.918Z,96875.16
2022-12-11T00:30:47.977Z,96870.00
2022-12-11T00:33:15.694Z,96877.47
2022-12-11T00:35:46.837Z,96880.56
2022-12-11T00:38:17.789Z,96880.97
2022-12-11T00:40:45.731Z,96874.34
2022-12-11T00:43:14.400Z,96874.81
2022-12-11T00:45:44.523Z,96874.00
2022-12-11T00:48:13.376Z,96876.03
2022-12-11T00:50:41.417Z,96883.28
2022-12-11T00:53:08.899Z,96878.75
2022-12-11T00:55:38.274Z,96887.69
2022-12-11T00:58:07.300Z,96889.50
2022-12-11T01:00:35.615Z,96884.44
2022-12-11T01:03:03.668Z,96876.50
2022-12-11T01:05:31.729Z,96893.81
2022-12-11T01:07:59.816Z,96889.66
2022-12-11T01:10:27.454Z,96879.97
2022-12-11T01:12:56.430Z,96877.97
2022-12-11T01:15:29.919Z,96881.69
2022-12-11T01:17:57.572Z,96889.47
2022-12-11T01:20:27.360Z,96900.28
2022-12-11T01:22:57.323Z,96892.34
2022-12-11T01:25:25.829Z,96894.59
2022-12-11T01:27:55.348Z,96899.91
2022-12-11T01:30:25.081Z,96905.47
2022-12-11T01:32:52.734Z,96895.59
2022-12-11T01:35:20.837Z,96905.47
2022-12-11T01:37:49.019Z,96906.88
2022-12-11T01:40:19.406Z,96907.69
2022-12-11T01:42:47.223Z,96905.91
2022-12-11T01:45:33.319Z,96905.16
2022-12-11T01:48:14.217Z,96894.34
2022-12-11T01:50:47.010Z,96892.88
2022-12-11T01:53:20.058Z,96905.53
2022-12-11T01:55:49.587Z,96916.56
2022-12-11T01:58:18.664Z,96912.88
2022-12-11T02:00:46.623Z,96904.97
2022-12-11T02:03:14.416Z,96899.16
2022-12-11T02:05:43.425Z,96904.94
2022-12-11T02:08:12.085Z,96913.28
2022-12-11T02:10:42.230Z,96903.75
2022-12-11T02:13:19.124Z,96894.78
2022-12-11T02:16:18.954Z,96889.13
2022-12-11T02:18:59.109Z,96902.31
2022-12-11T02:21:33.642Z,96900.03
2022-12-11T02:24:45.944Z,96906.97
2022-12-11T02:27:29.213Z,96900.13
2022-12-11T02:30:05.932Z,96894.22
2022-12-11T02:32:46.063Z,96894.41
2022-12-11T02:35:22.295Z,96887.06
2022-12-11T02:37:55.145Z,96892.66
2022-12-11T02:40:27.832Z,96882.47
2022-12-11T02:42:58.182Z,96880.59
2022-12-11T02:45:27.576Z,96875.72
2022-12-11T02:47:58.867Z,96867.91
2022-12-11T02:50:28.956Z,96864.91
2022-12-11T02:52:58.645Z,96880.09
2022-12-11T02:55:28.464Z,96871.03
2022-12-11T02:58:04.725Z,96875.69
2022-12-11T03:00:33.011Z,96883.50
2022-12-11T13:14:57.292Z,97399.75
2022-12-11T13:43:50.981Z,97437.00
2022-12-11T13:46:29.332Z,97427.69
2022-12-11T13:49:01.172Z,97437.97
2022-12-11T13:51:32.018Z,97441.06
2022-12-11T13:54:17.281Z,97442.56
2022-12-11T13:56:57.236Z,97451.84
2022-12-11T13:59:37.160Z,97453.16
2022-12-11T14:02:18.366Z,97459.66
2022-12-11T14:04:49.577Z,97461.50
2022-12-11T14:07:25.141Z,97461.22
2022-12-11T14:09:59.782Z,97467.25
2022-12-11T14:12:29.509Z,97476.50
2022-12-11T14:14:59.817Z,97483.13
2022-12-11T14:17:30.906Z,97489.31
2022-12-11T14:20:03.115Z,97494.72
2022-12-11T14:22:30.853Z,97495.00
2022-12-11T14:25:03.612Z,97501.38
2022-12-11T14:27:31.448Z,97511.09
2022-12-11T14:30:11.353Z,97508.34
2022-12-11T14:32:44.797Z,97514.50
2022-12-11T14:35:38.697Z,97510.16
2022-12-11T14:38:15.664Z,97520.09
2022-12-11T14:40:47.483Z,97522.00
2022-12-11T14:43:23.473Z,97516.66
2022-12-11T14:45:57.476Z,97519.28
2022-12-11T14:48:42.710Z,97522.06
2022-12-11T14:51:13.085Z,97526.50
2022-12-11T14:53:45.021Z,97533.91
2022-12-11T14:56:25.747Z,97526.63
2022-12-11T14:58:58.240Z,97540.88
2022-12-11T15:01:29.841Z,97532.34
2022-12-11T15:04:25.392Z,97538.84
2022-12-11T15:06:53.159Z,97541.59
2022-12-11T15:09:40.675Z,97553.38
2022-12-11T15:12:13.839Z,97562.88
2022-12-11T15:15:01.343Z,97561.19
2022-12-11T15:17:33.035Z,97566.38
2022-12-11T15:20:07.604Z,97563.88
2022-12-11T15:22:36.131Z,97555.69
2022-12-11T15:25:04.239Z,97568.38
2022-12-11T15:27:39.738Z,97567.94
2022-12-11T15:30:29.191Z,97567.91
2022-12-11T15:33:05.712Z,97570.03
2022-12-11T15:35:33.339Z,97563.41
2022-12-11T15:38:01.076Z,97561.47
2022-12-11T15:40:29.352Z,97561.25
2022-12-11T15:42:57.937Z,97554.72
2022-12-11T15:45:29.522Z,97574.44
2022-12-11T15:48:00.178Z,97570.22
2022-12-11T15:50:29.567Z,97588.41
2022-12-11T15:52:57.413Z,97577.69
2022-12-11T15:55:27.757Z,97587.56
2022-12-11T15:57:59.499Z,97576.63
2022-12-11T16:00:28.285Z,97582.59
2022-12-11T16:02:57.134Z,97584.03
2022-12-11T16:05:25.766Z,97586.16
2022-12-11T16:07:54.701Z,97590.31
2022-12-11T16:10:22.989Z,97596.41
2022-12-11T16:12:51.238Z,97594.63
2022-12-11T16:15:23.513Z,97598.44
2022-12-11T16:18:03.354Z,97603.06
2022-12-11T16:20:31.666Z,97608.44
2022-12-11T16:23:00.497Z,97602.41
2022-12-11T16:25:29.075Z,97596.69
2022-12-11T16:27:58.202Z,97606.41
2022-12-11T16:30:27.476Z,97608.19
2022-12-11T16:32:55.985Z,97600.38
2022-12-11T16:35:23.803Z,97616.88
2022-12-11T16:37:53.339Z,97607.19
2022-12-11T16:40:21.379Z,97617.31
2022-12-11T16:42:52.188Z,97618.94
2022-12-11T16:45:26.146Z,97615.88
2022-12-11T16:47:55.133Z,97607.56
2022-12-11T16:50:23.678Z,97617.16
2022-12-11T16:52:51.189Z,97616.94
2022-12-11T16:55:22.208Z,97619.13
2022-12-11T16:57:49.753Z,97623.47
2022-12-11T17:00:18.705Z,97610.63
2022-12-11T17:02:46.297Z,97618.84
2022-12-11T17:05:16.610Z,97627.13
2022-12-11T17:07:44.529Z,97618.50
2022-12-11T17:10:12.298Z,97611.41
2022-12-11T17:12:40.219Z,97604.94
2022-12-11T17:15:08.044Z,97608.91
2022-12-11T17:17:35.600Z,97614.88
2022-12-11T17:20:05.161Z,97611.00
2022-12-11T17:22:33.381Z,97616.25
2022-12-11T17:25:01.183Z,97622.06
2022-12-11T17:27:29.895Z,97613.09
2022-12-11T17:29:57.780Z,97619.44
2022-12-11T17:32:25.976Z,97616.69
2022-12-11T17:34:53.811Z,97608.63
2022-12-11T17:37:21.689Z,97613.31
2022-12-11T17:39:53.345Z,97616.88
2022-12-11T17:42:21.511Z,97608.16
2022-12-11T17:44:49.023Z,97608.69
2022-12-11T17:47:17.018Z,97600.53
2022-12-11T17:49:45.149Z,97601.44
2022-12-11T17:52:12.905Z,97603.84
2022-12-11T17:54:40.559Z,97616.31
2022-12-11T17:57:09.823Z,97603.97
2022-12-11T17:59:37.951Z,97614.41
2022-12-11T18:02:05.599Z,97628.00
2022-12-11T18:04:34.201Z,97623.78
2022-12-11T18:07:02.193Z,97629.50
2022-12-11T18:09:30.025Z,97618.84
2022-12-11T18:11:57.735Z,97615.09
2022-12-11T18:14:25.576Z,97623.81
2022-12-11T18:16:53.332Z,97627.22
2022-12-11T18:19:22.700Z,97638.78
2022-12-11T18:21:50.484Z,97636.47
2022-12-11T18:24:18.055Z,97644.63
2022-12-11T18:26:46.964Z,97644.25
2022-12-11T18:29:15.280Z,97649.13
2022-12-11T18:31:43.670Z,97659.34
2022-12-11T18:34:11.525Z,97658.81
2022-12-11T18:36:40.839Z,97657.28
2022-12-11T18:39:09.642Z,97652.22
2022-12-11T18:41:37.403Z,97659.44
2022-12-11T18:44:09.510Z,97662.41
2022-12-11T18:46:39.605Z,97670.34
2022-12-11T18:49:07.662Z,97658.25
2022-12-11T18:51:35.990Z,97667.28
2022-12-11T18:54:04.856Z,97666.25
2022-12-11T18:56:32.650Z,97670.41
2022-12-11T18:59:00.296Z,97676.41
2022-12-11T19:01:29.934Z,97688.59
2022-12-11T19:04:03.530Z,97676.84
2022-12-11T19:06:35.468Z,97685.81
2022-12-11T19:09:06.621Z,97683.22
2022-12-11T19:11:35.655Z,97679.81
2022-12-11T19:14:05.633Z,97676.72
2022-12-11T19:16:36.621Z,97685.56
2022-12-11T19:19:09.931Z,97682.22
2022-12-11T19:21:38.708Z,97688.59
2022-12-11T19:24:08.671Z,97697.47
2022-12-11T19:26:36.663Z,97700.75
2022-12-11T19:29:04.488Z,97704.50
2022-12-11T19:31:33.911Z,97702.75
2022-12-11T19:34:02.643Z,97693.31
2022-12-11T19:36:33.599Z,97695.25
2022-12-11T19:39:04.205Z,97699.78
2022-12-11T19:41:33.917Z,97699.59
2022-12-11T19:44:02.214Z,97715.50
2022-12-11T19:46:30.071Z,97712.03
2022-12-11T19:48:59.318Z,97715.31
2022-12-11T19:51:38.298Z,97719.13
2022-12-11T19:54:08.762Z,97713.63
2022-12-11T19:56:36.406Z,97714.09
2022-12-11T19:59:08.348Z,97718.31
2022-12-11T20:01:37.650Z,97709.44
2022-12-11T20:04:11.461Z,97716.03
2022-12-11T20:06:42.906Z,97713.56
2022-12-11T20:09:12.211Z,97706.63
2022-12-11T20:11:43.648Z,97705.06
2022-12-11T20:14:22.312Z,97719.94
2022-12-11T20:17:11.061Z,97715.59
2022-12-11T20:19:40.727Z,97715.59
2022-12-11T20:22:09.198Z,97720.91
2022-12-11T20:24:37.504Z,97720.81
2022-12-11T20:27:05.185Z,97720.78
2022-12-11T20:29:32.992Z,97728.97
2022-12-11T20:32:00.921Z,97728.47
2022-12-11T20:34:30.016Z,97737.03
2022-12-11T20:36:57.870Z,97734.63
2022-12-11T20:39:25.816Z,97722.59
2022-12-11T20:41:53.716Z,97732.81
2022-12-11T20:44:21.722Z,97728.44
2022-12-11T20:46:50.731Z,97725.19
2022-12-11T20:49:18.333Z,97741.28
2022-12-11T20:51:46.121Z,97728.84
2022-12-11T20:54:14.800Z,97729.13
2022-12-11T20:56:42.648Z,97732.84
2022-12-11T20:59:10.822Z,97737.03
2022-12-11T21:01:40.256Z,97733.50
2022-12-11T21:04:08.032Z,97738.25
2022-12-11T21:06:38.709Z,97742.06
2022-12-11T21:09:09.413Z,97738.69
2022-12-11T21:11:37.158Z,97742.06
2022-12-11T21:14:05.451Z,97744.94
2022-12-11T21:16:36.612Z,97751.78
2022-12-11T21:19:07.917Z,97759.69
2022-12-11T21:21:39.922Z,97759.09
2022-12-11T21:24:09.083Z,97757.47
2022-12-11T21:26:36.531Z,97753.63
2022-12-11T21:29:04.560Z,97756.94
2022-12-11T21:31:32.189Z,97758.06
2022-12-11T21:34:00.158Z,97761.63
2022-12-11T21:36:27.754Z,97763.00
2022-12-11T21:38:55.253Z,97771.66
2022-12-11T21:41:24.141Z,97767.94
2022-12-11T21:46:41.981Z,97762.69
2022-12-11T21:49:10.077Z,97764.91
2022-12-11T21:51:47.411Z,97776.09
2022-12-11T21:54:18.453Z,97772.22
2022-12-11T21:56:46.923Z,97791.41
2022-12-11T21:59:14.765Z,97776.78
2022-12-11T22:01:45.838Z,97773.53
2022-12-11T22:04:14.517Z,97778.88
2022-12-11T22:06:43.620Z,97786.19
2022-12-11T22:09:12.551Z,97788.94
2022-12-11T22:11:42.064Z,97782.88
2022-12-11T22:14:15.331Z,97784.09
2022-12-11T22:16:43.734Z,97784.28
2022-12-11T22:19:11.669Z,97780.91
2022-12-11T22:21:39.964Z,97788.16
2022-12-11T22:24:07.579Z,97785.13
2022-12-11T22:26:35.039Z,97787.66
2022-12-11T22:29:02.946Z,97781.81
2022-12-11T22:31:30.510Z,97790.03
2022-12-11T22:33:57.967Z,97783.56
2022-12-11T22:36:26.807Z,97783.13
2022-12-11T22:38:54.551Z,97777.13
2022-12-11T22:41:22.606Z,97782.81
2022-12-11T22:43:51.294Z,97784.59
2022-12-11T22:46:21.169Z,97790.97
2022-12-11T22:48:48.860Z,97794.69
2022-12-11T22:51:17.708Z,97787.25
2022-12-11T22:53:45.297Z,97792.09
2022-12-11T22:56:13.419Z,97786.75
2022-12-11T22:58:41.394Z,97803.16
2022-12-11T23:01:15.440Z,97805.75
2022-12-11T23:03:43.116Z,97813.50
2022-12-11T23:06:13.270Z,97813.69
2022-12-11T23:08:43.061Z,97810.69
2022-12-11T23:11:25.908Z,97812.44
2022-12-11T23:13:54.671Z,97809.41
2022-12-11T23:16:24.671Z,97810.63
2022-12-11T23:18:53.293Z,97804.25
2022-12-11T23:21:21.809Z,97796.19
2022-12-11T23:23:49.610Z,97794.53
2022-12-11T23:26:18.769Z,97796.47
2022-12-11T23:28:47.406Z,97808.59
2022-12-11T23:31:16.521Z,97815.09
2022-12-11T23:33:44.682Z,97819.34
2022-12-11T23:36:12.768Z,97813.09
2022-12-11T23:38:40.892Z,97813.25
2022-12-11T23:41:11.786Z,97809.53
2022-12-11T23:43:41.291Z,97818.09
2022-12-11T23:46:16.190Z,97811.38
2022-12-11T23:48:44.762Z,97812.63
2022-12-11T23:51:15.477Z,97801.84
2022-12-11T23:53:43.383Z,97805.38
2022-12-11T23:56:15.584Z,97809.59
2022-12-11T23:58:45.363Z,97817.28
